createdAt,value
2023-05-14T00:00:38.481Z,1.80
2023-05-14T00:05:43.916Z,1.42
2023-05-14T00:10:47.937Z,1.90
2023-05-14T00:15:52.262Z,1.67
2023-05-14T00:20:57.864Z,1.67
2023-05-14T00:26:01.893Z,1.83
2023-05-14T00:31:06.517Z,1.90
2023-05-14T00:36:12.275Z,1.42
2023-05-14T00:41:16.362Z,1.70
2023-05-14T00:46:21.356Z,1.50
2023-05-14T00:51:28.408Z,1.98
2023-05-14T00:56:33.259Z,1.80
2023-05-14T01:01:40.173Z,1.60
2023-05-14T01:06:57.195Z,1.80
2023-05-14T01:12:07.285Z,1.58
2023-05-14T01:17:13.546Z,1.90
2023-05-14T01:22:19.083Z,1.70
2023-05-14T01:27:27.384Z,1.88
2023-05-14T01:32:32.963Z,1.73
2023-05-14T01:37:41.128Z,1.75
2023-05-14T01:42:51.940Z,1.88
2023-05-14T01:47:56.087Z,1.58
2023-05-14T01:53:01.808Z,1.80
2023-05-14T01:58:06.029Z,1.50
2023-05-14T02:03:10.469Z,1.92
2023-05-14T02:08:16.339Z,1.45
2023-05-14T02:13:20.932Z,1.38
2023-05-14T02:18:26.010Z,1.83
2023-05-14T02:23:40.949Z,1.70
2023-05-14T02:28:46.814Z,1.30
2023-05-14T02:33:51.148Z,1.67
2023-05-14T02:38:56.953Z,1.38
2023-05-14T02:44:03.346Z,1.98
2023-05-14T02:49:08.260Z,1.58
2023-05-14T02:54:13.719Z,1.90
2023-05-14T02:59:17.766Z,2.40
2023-05-14T03:04:24.286Z,1.65
2023-05-14T03:09:29.897Z,1.95
2023-05-14T03:14:34.023Z,2.10
2023-05-14T03:19:38.061Z,2.35
2023-05-14T03:24:43.673Z,2.60
2023-05-14T03:29:47.815Z,2.53
2023-05-14T03:34:51.883Z,2.25
2023-05-14T03:39:57.356Z,3.58
2023-05-14T03:45:01.408Z,6.82
2023-05-14T03:50:06.135Z,6.20
2023-05-14T03:55:12.272Z,2.85
2023-05-14T04:00:17.124Z,1.92
2023-05-14T04:05:21.849Z,2.30
2023-05-14T04:10:27.441Z,2.10
2023-05-14T04:15:32.164Z,1.98
2023-05-14T04:20:40.377Z,2.40
2023-05-14T04:25:45.921Z,2.08
2023-05-14T04:30:50.046Z,3.53
2023-05-14T04:35:54.557Z,4.97
2023-05-14T04:41:00.404Z,3.30
2023-05-14T04:46:05.048Z,3.10
2023-05-14T04:51:09.848Z,2.75
2023-05-14T04:56:15.444Z,2.42
2023-05-14T05:01:19.475Z,2.72
2023-05-14T05:06:23.519Z,2.45
2023-05-14T05:11:28.903Z,3.05
2023-05-14T05:16:33.160Z,3.05
2023-05-14T05:21:39.501Z,2.63
2023-05-14T05:26:44.919Z,3.22
2023-05-14T05:31:49.689Z,3.15
2023-05-14T05:36:54.020Z,3.55
2023-05-14T05:41:59.735Z,3.40
2023-05-14T05:47:04.084Z,3.50
2023-05-14T05:52:08.517Z,3.97
2023-05-14T05:57:13.977Z,4.80
2023-05-14T06:02:18.039Z,4.63
2023-05-14T06:07:22.165Z,3.65
2023-05-14T06:12:27.551Z,4.45
2023-05-14T06:17:31.666Z,4.10
2023-05-14T06:22:35.979Z,7.70
2023-05-14T06:27:41.539Z,9.75
2023-05-14T06:32:46.006Z,6.60
2023-05-14T06:37:54.036Z,5.30
2023-05-14T06:42:59.780Z,3.60
2023-05-14T06:48:06.144Z,3.85
2023-05-14T06:53:10.482Z,3.55
2023-05-14T06:58:16.019Z,6.15
2023-05-14T07:03:20.069Z,6.40
2023-05-14T07:08:24.235Z,8.88
2023-05-14T07:13:29.775Z,6.63
2023-05-14T07:18:34.651Z,4.20
2023-05-14T07:23:39.678Z,6.25
2023-05-14T07:28:45.234Z,9.60
2023-05-14T07:33:49.327Z,6.28
2023-05-14T07:38:53.468Z,4.90
2023-05-14T07:43:59.456Z,4.88
2023-05-14T07:49:04.769Z,5.47
2023-05-14T07:54:11.390Z,5.07
2023-05-14T07:59:16.788Z,5.97
2023-05-14T08:04:21.163Z,5.93
2023-05-14T08:09:25.672Z,12.52
2023-05-14T08:14:31.615Z,10.85
2023-05-14T08:19:35.847Z,10.77
2023-05-14T08:24:43.235Z,8.70
2023-05-14T08:29:49.809Z,8.98
2023-05-14T08:34:56.220Z,9.38
2023-05-14T08:40:02.624Z,5.47
2023-05-14T08:45:14.761Z,4.53
2023-05-14T08:50:22.885Z,4.30
2023-05-14T08:55:32.675Z,4.23
2023-05-14T09:00:38.474Z,3.95
2023-05-14T09:05:43.952Z,3.50
2023-05-14T09:10:49.726Z,3.40
2023-05-14T09:15:57.787Z,3.97
2023-05-14T09:21:03.138Z,3.08
2023-05-14T09:26:07.502Z,3.67
2023-05-14T09:31:13.773Z,3.65
2023-05-14T09:36:18.647Z,3.28
2023-05-14T09:41:27.927Z,4.18
2023-05-14T09:46:34.022Z,3.15
2023-05-14T09:51:39.634Z,3.22
2023-05-14T09:56:44.930Z,3.30
2023-05-14T10:01:54.883Z,3.97
2023-05-14T10:06:59.351Z,4.22
2023-05-14T10:12:03.842Z,3.65
2023-05-14T10:17:18.187Z,4.35
2023-05-14T10:22:25.247Z,4.30
2023-05-14T10:27:30.124Z,6.53
2023-05-14T10:32:37.981Z,4.55
2023-05-14T10:37:42.203Z,4.90
2023-05-14T10:42:48.282Z,4.95
2023-05-14T10:47:56.928Z,5.32
2023-05-14T10:53:04.669Z,5.37
2023-05-14T10:58:08.872Z,6.68
2023-05-14T11:03:15.159Z,4.65
2023-05-14T11:08:23.918Z,5.30
2023-05-14T11:13:29.980Z,6.55
2023-05-14T11:18:38.860Z,6.63
2023-05-14T11:23:43.325Z,5.72
2023-05-14T11:28:48.043Z,5.22
2023-05-14T11:33:55.501Z,5.80
2023-05-14T11:38:59.514Z,5.75
2023-05-14T11:44:05.310Z,6.25
2023-05-14T11:49:12.073Z,5.35
2023-05-14T11:54:16.544Z,5.32
2023-05-14T11:59:20.602Z,5.35
2023-05-14T12:04:26.285Z,5.35
2023-05-14T12:09:30.490Z,4.78
2023-05-14T12:14:39.864Z,4.32
2023-05-14T12:24:54.991Z,5.10
2023-05-14T12:30:19.992Z,4.88
2023-05-14T12:35:27.277Z,4.53
2023-05-14T12:40:31.769Z,4.95
2023-05-14T12:45:35.823Z,4.35
2023-05-14T12:50:41.899Z,3.97
2023-05-14T12:55:45.997Z,4.63
2023-05-14T13:00:50.123Z,4.07
2023-05-14T13:05:56.767Z,4.68
2023-05-14T13:11:01.147Z,4.07
2023-05-14T13:16:05.687Z,4.20
2023-05-14T13:21:12.696Z,4.45
2023-05-14T13:26:17.426Z,3.90
2023-05-14T13:31:21.613Z,4.28
2023-05-14T13:36:27.564Z,3.63
2023-05-14T13:41:35.303Z,4.20
2023-05-14T13:46:41.199Z,4.60
2023-05-14T13:51:46.934Z,4.53
2023-05-14T13:56:51.206Z,4.43
2023-05-14T14:01:55.815Z,4.43
2023-05-14T14:07:01.556Z,4.75
2023-05-14T14:12:06.305Z,5.30
2023-05-14T14:17:10.559Z,5.82
2023-05-14T14:22:17.649Z,5.53
2023-05-14T14:27:22.600Z,5.30
2023-05-14T14:32:27.203Z,7.63
2023-05-14T14:37:32.875Z,7.53
2023-05-14T14:42:37.729Z,8.48
2023-05-14T14:47:48.219Z,6.85
2023-05-14T14:52:57.859Z,6.97
2023-05-14T14:58:03.521Z,8.00
2023-05-14T15:03:10.318Z,8.98
2023-05-14T15:08:17.207Z,8.18
2023-05-14T15:13:21.766Z,7.95
2023-05-14T15:18:26.053Z,32.80
2023-05-14T15:23:31.845Z,24.58
2023-05-14T15:28:36.095Z,15.82
2023-05-14T15:33:41.960Z,11.02
2023-05-14T15:38:47.427Z,7.88
2023-05-14T15:43:52.334Z,7.38
2023-05-14T15:48:59.025Z,5.75
2023-05-14T15:54:05.274Z,6.68
2023-05-14T15:59:14.209Z,8.20
2023-05-14T16:04:18.556Z,7.90
2023-05-14T16:09:24.400Z,5.32
2023-05-14T16:14:28.630Z,4.63
2023-05-14T16:19:32.877Z,3.92
2023-05-14T16:24:38.502Z,6.65
2023-05-14T16:29:42.774Z,6.72
2023-05-14T16:34:49.947Z,5.57
2023-05-14T16:39:55.407Z,8.00
2023-05-14T16:44:59.619Z,7.28
2023-05-14T16:50:04.365Z,19.27
2023-05-14T16:55:11.015Z,72.00
2023-05-14T17:00:16.338Z,26.00
2023-05-14T17:05:20.467Z,19.35
2023-05-14T17:10:26.535Z,56.47
2023-05-14T17:15:31.292Z,33.83
2023-05-14T17:20:36.242Z,19.33
2023-05-14T17:25:42.170Z,12.90
2023-05-14T17:30:47.207Z,10.55
2023-05-14T17:35:51.552Z,14.38
2023-05-14T17:40:57.183Z,14.95
2023-05-14T17:46:01.421Z,14.75
2023-05-14T17:51:05.656Z,14.27
2023-05-14T17:56:12.451Z,8.15
2023-05-14T18:01:16.687Z,4.22
2023-05-14T18:06:21.133Z,5.90
2023-05-14T18:11:33.316Z,12.70
2023-05-14T18:16:38.724Z,11.18
2023-05-14T18:21:43.641Z,8.55
2023-05-14T18:26:49.376Z,6.38
2023-05-14T18:31:53.816Z,7.40
2023-05-14T18:36:58.883Z,8.02
2023-05-14T18:42:04.830Z,7.00
2023-05-14T18:47:09.452Z,6.53
2023-05-14T18:52:13.566Z,7.07
2023-05-14T18:57:19.482Z,6.57
2023-05-14T19:02:24.455Z,10.18
2023-05-14T19:07:30.621Z,6.78
2023-05-14T19:12:36.506Z,6.63
2023-05-14T19:17:42.460Z,7.63
2023-05-14T19:22:47.171Z,5.53
2023-05-14T19:27:54.673Z,4.47
2023-05-14T19:32:59.141Z,5.38
2023-05-14T19:38:03.521Z,6.53
2023-05-14T19:43:10.370Z,6.57
2023-05-14T19:48:16.020Z,7.30
2023-05-14T19:53:29.551Z,7.90
2023-05-14T19:58:35.757Z,7.07
2023-05-14T20:03:40.294Z,9.20
2023-05-14T20:08:46.910Z,7.78
2023-05-14T20:13:53.192Z,7.55
2023-05-14T20:18:58.688Z,10.75
2023-05-14T20:24:03.025Z,6.43
2023-05-14T20:29:11.358Z,5.13
2023-05-14T20:34:16.240Z,4.93
2023-05-14T20:39:21.167Z,5.63
2023-05-14T20:44:26.875Z,6.22
2023-05-14T20:49:31.323Z,6.18
2023-05-14T20:54:35.522Z,5.75
2023-05-14T20:59:41.629Z,6.70
2023-05-14T21:04:46.154Z,6.60
2023-05-14T21:09:52.773Z,6.03
2023-05-14T21:14:59.482Z,8.98
2023-05-14T21:20:03.942Z,5.13
2023-05-14T21:25:09.305Z,5.22
2023-05-14T21:30:15.705Z,4.95
2023-05-14T21:35:20.544Z,9.82
2023-05-14T21:40:24.685Z,8.55
2023-05-14T21:45:30.308Z,4.90
2023-05-14T21:50:34.494Z,4.38
2023-05-14T21:55:39.537Z,7.18
2023-05-14T22:00:47.261Z,11.68
2023-05-14T22:05:51.754Z,8.05
2023-05-14T22:10:56.658Z,5.60
2023-05-14T22:16:12.012Z,5.50
2023-05-14T22:21:17.696Z,5.22
2023-05-14T22:26:21.926Z,5.25
2023-05-14T22:31:28.702Z,6.55
2023-05-14T22:36:33.702Z,6.70
2023-05-14T22:41:37.758Z,7.32
2023-05-14T22:46:43.200Z,6.20
2023-05-14T22:51:47.252Z,6.45
2023-05-14T22:56:51.648Z,6.43
2023-05-14T23:01:57.308Z,6.03
2023-05-14T23:07:01.439Z,6.50
2023-05-14T23:12:06.120Z,7.07
2023-05-14T23:17:12.214Z,7.28
2023-05-14T23:22:16.271Z,7.75
2023-05-14T23:27:22.642Z,8.55
2023-05-14T23:32:28.408Z,7.30
2023-05-14T23:37:33.707Z,7.68
2023-05-14T23:42:37.794Z,6.88
2023-05-14T23:47:43.356Z,7.78
2023-05-14T23:52:47.714Z,8.68
2023-05-14T23:57:51.825Z,10.13
